createdAt,value
2019-04-11T00:00:05.025Z,15.10
2019-04-11T00:02:38.550Z,15.10
2019-04-11T00:05:10.607Z,15.10
2019-04-11T00:07:42.551Z,15.20
2019-04-11T00:10:14.481Z,15.20
2019-04-11T00:12:46.467Z,15.20
2019-04-11T00:15:18.176Z,15.20
2019-04-11T00:17:50.223Z,15.20
2019-04-11T00:20:22.439Z,15.20
2019-04-11T00:22:54.604Z,15.20
2019-04-11T00:25:27.367Z,15.20
2019-04-11T00:27:59.374Z,15.20
2019-04-11T00:30:32.295Z,15.20
2019-04-11T00:33:03.685Z,15.20
2019-04-11T00:35:35.568Z,15.20
2019-04-11T00:38:07.750Z,15.10
2019-04-11T00:40:39.867Z,15.20
2019-04-11T00:43:12.219Z,15.20
2019-04-11T00:45:43.950Z,15.20
2019-04-11T00:48:15.663Z,15.20
2019-04-11T00:50:47.632Z,15.20
2019-04-11T00:53:20.185Z,15.20
2019-04-11T00:55:53.541Z,15.20
2019-04-11T00:58:25.674Z,15.10
2019-04-11T01:00:57.567Z,15.10
2019-04-11T01:03:29.031Z,15.10
2019-04-11T01:06:01.377Z,15.20
2019-04-11T01:08:33.597Z,15.20
2019-04-11T01:11:05.866Z,15.10
2019-04-11T01:13:44.428Z,15.10
2019-04-11T01:16:21.518Z,15.10
2019-04-11T01:18:52.781Z,15.10
2019-04-11T01:21:24.322Z,15.10
2019-04-11T01:23:56.075Z,15.10
2019-04-11T01:26:28.244Z,15.10
2019-04-11T01:29:00.838Z,15.10
2019-04-11T01:31:33.790Z,15.10
2019-04-11T01:34:06.476Z,15.00
2019-04-11T01:36:45.623Z,15.00
2019-04-11T01:39:37.129Z,15.00
2019-04-11T01:42:09.160Z,15.00
2019-04-11T01:44:41.074Z,15.00
2019-04-11T01:47:15.411Z,15.00
2019-04-11T01:49:46.729Z,15.00
2019-04-11T01:52:18.237Z,14.90
2019-04-11T01:54:50.077Z,14.90
2019-04-11T01:57:22.156Z,15.00
2019-04-11T01:59:53.683Z,14.90
2019-04-11T02:02:44.784Z,14.90
2019-04-11T02:05:23.615Z,14.90
2019-04-11T02:07:55.991Z,14.90
2019-04-11T02:10:27.243Z,14.90
2019-04-11T02:12:59.606Z,14.90
2019-04-11T02:15:31.076Z,14.90
2019-04-11T02:18:03.358Z,14.90
2019-04-11T02:20:36.792Z,14.90
2019-04-11T02:23:30.931Z,14.90
2019-04-11T02:26:13.457Z,14.80
2019-04-11T02:28:44.872Z,14.80
2019-04-11T02:31:17.376Z,14.80
2019-04-11T02:33:51.164Z,14.80
2019-04-11T02:36:24.787Z,14.80
2019-04-11T02:38:58.919Z,14.80
2019-04-11T02:41:30.303Z,14.80
2019-04-11T02:44:03.567Z,14.80
2019-04-11T02:46:43.632Z,14.80
2019-04-11T02:49:10.106Z,14.80
2019-04-11T02:51:43.130Z,14.80
2019-04-11T02:54:15.914Z,14.80
2019-04-11T02:56:50.386Z,14.80
2019-04-11T02:59:22.006Z,14.80
2019-04-11T03:01:53.616Z,14.80
2019-04-11T03:04:26.948Z,14.80
2019-04-11T03:07:00.466Z,14.80
2019-04-11T03:09:31.977Z,14.90
2019-04-11T03:12:05.076Z,14.80
2019-04-11T03:14:54.335Z,14.80
2019-04-11T03:17:17.347Z,14.80
2019-04-11T03:19:54.278Z,14.80
2019-04-11T03:22:16.118Z,14.70
2019-04-11T03:24:49.137Z,14.80
2019-04-11T03:27:22.463Z,14.80
2019-04-11T03:29:53.828Z,14.80
2019-04-11T03:35:52.269Z,14.70
2019-04-11T03:38:15.272Z,14.80
2019-04-11T03:40:28.764Z,14.80
2019-04-11T03:42:55.662Z,14.80
2019-04-11T03:45:41.662Z,14.80
2019-04-11T03:48:08.973Z,14.80
2019-04-11T03:50:25.959Z,14.80
2019-04-11T03:52:59.475Z,14.80
2019-04-11T03:55:32.221Z,14.80
2019-04-11T03:58:06.017Z,14.80
2019-04-11T04:00:41.229Z,14.80
2019-04-11T04:03:13.470Z,14.80
2019-04-11T04:05:44.838Z,14.90
2019-04-11T04:08:17.925Z,14.80
2019-04-11T04:11:25.125Z,14.80
2019-04-11T04:14:08.202Z,14.80
2019-04-11T04:16:52.457Z,14.70
2019-04-11T04:19:37.702Z,14.70
2019-04-11T04:22:24.792Z,14.70
2019-04-11T04:24:56.779Z,14.70
2019-04-11T04:27:30.538Z,14.70
2019-04-11T04:30:05.086Z,14.80
2019-04-11T04:32:36.218Z,14.80
2019-04-11T04:35:12.713Z,14.80
2019-04-11T04:37:40.976Z,14.80
2019-04-11T04:40:31.442Z,14.80
2019-04-11T04:42:50.971Z,14.80
2019-04-11T04:45:21.496Z,14.80
2019-04-11T04:47:59.210Z,14.80
2019-04-11T04:50:28.738Z,14.80
2019-04-11T04:53:02.586Z,14.80
2019-04-11T04:55:34.943Z,14.80
2019-04-11T04:58:07.243Z,14.80
2019-04-11T05:00:39.650Z,14.80
2019-04-11T05:03:11.388Z,14.80
2019-04-11T05:05:44.239Z,14.80
2019-04-11T05:08:18.455Z,14.80
2019-04-11T05:10:51.298Z,14.80
2019-04-11T05:13:23.949Z,14.80
2019-04-11T05:16:07.392Z,14.80
2019-04-11T05:18:29.905Z,14.90
2019-04-11T05:21:10.753Z,14.80
2019-04-11T05:23:48.507Z,14.80
2019-04-11T05:26:19.862Z,14.80
2019-04-11T05:28:51.226Z,14.80
2019-04-11T05:31:22.716Z,14.80
2019-04-11T05:33:55.967Z,14.80
2019-04-11T05:36:28.291Z,14.80
2019-04-11T05:39:00.397Z,14.80
2019-04-11T05:41:33.950Z,14.80
2019-04-11T05:44:10.132Z,14.80
2019-04-11T05:46:49.255Z,14.80
2019-04-11T05:49:29.059Z,14.70
2019-04-11T05:52:05.954Z,14.70
2019-04-11T05:54:48.872Z,14.70
2019-04-11T05:57:23.806Z,14.70
2019-04-11T05:59:55.116Z,14.70
2019-04-11T06:02:35.226Z,14.70
2019-04-11T06:05:24.502Z,14.80
2019-04-11T06:07:58.312Z,14.80
2019-04-11T06:10:46.498Z,14.70
2019-04-11T06:13:26.783Z,14.80
2019-04-11T06:16:01.387Z,14.80
2019-04-11T06:19:06.121Z,14.80
2019-04-11T06:21:42.339Z,14.80
2019-04-11T06:24:32.156Z,14.80
2019-04-11T06:27:12.494Z,14.80
2019-04-11T06:30:12.659Z,14.80
2019-04-11T06:33:05.923Z,14.80
2019-04-11T06:35:50.408Z,14.80
2019-04-11T06:38:39.355Z,14.80
2019-04-11T06:41:18.738Z,14.80
2019-04-11T06:44:06.901Z,14.80
2019-04-11T06:47:02.657Z,14.80
2019-04-11T06:49:40.946Z,14.80
2019-04-11T06:52:12.978Z,14.90
2019-04-11T06:55:04.489Z,14.90
2019-04-11T06:57:36.293Z,14.90
2019-04-11T07:00:09.188Z,14.80
2019-04-11T07:02:44.466Z,14.80
2019-04-11T07:05:18.323Z,14.80
2019-04-11T07:07:52.134Z,14.80
2019-04-11T07:10:30.675Z,14.80
2019-04-11T07:13:12.920Z,14.80
2019-04-11T07:15:48.810Z,14.70
2019-04-11T07:18:33.769Z,14.70
2019-04-11T07:21:08.381Z,14.80
2019-04-11T07:23:57.710Z,14.70
2019-04-11T07:26:33.131Z,14.70
2019-04-11T07:29:26.816Z,14.70
2019-04-11T07:32:13.575Z,14.70
2019-04-11T07:35:04.813Z,14.70
2019-04-11T07:37:47.443Z,14.70
2019-04-11T07:40:56.073Z,14.70
2019-04-11T07:43:36.119Z,14.70
2019-04-11T07:46:27.773Z,14.70
2019-04-11T07:49:05.983Z,14.70
2019-04-11T07:51:45.627Z,14.70
2019-04-11T07:54:23.178Z,14.70
2019-04-11T07:57:17.452Z,14.70
2019-04-11T08:00:19.377Z,14.70
2019-04-11T08:03:09.985Z,14.70
2019-04-11T08:05:59.392Z,14.70
2019-04-11T08:08:53.076Z,14.70
2019-04-11T08:11:40.071Z,14.70
2019-04-11T08:14:42.462Z,14.70
2019-04-11T08:17:25.962Z,14.70
2019-04-11T08:20:07.928Z,14.70
2019-04-11T08:22:45.471Z,14.70
2019-04-11T08:25:45.586Z,14.70
2019-04-11T08:28:18.388Z,14.70
2019-04-11T08:31:08.796Z,14.70
2019-04-11T08:33:40.553Z,14.70
2019-04-11T08:36:38.018Z,14.70
2019-04-11T08:39:15.815Z,14.70
2019-04-11T08:42:03.212Z,14.70
2019-04-11T08:44:37.930Z,14.60
2019-04-11T08:47:12.324Z,14.60
2019-04-11T08:49:46.112Z,14.70
2019-04-11T08:52:40.646Z,14.70
2019-04-11T08:55:29.309Z,14.70
2019-04-11T08:58:09.530Z,14.70
2019-04-11T09:00:48.855Z,14.60
2019-04-11T09:04:01.220Z,14.60
2019-04-11T09:06:28.528Z,14.60
2019-04-11T09:09:20.797Z,14.70
2019-04-11T09:11:56.441Z,14.70
2019-04-11T09:14:47.067Z,14.70
2019-04-11T09:17:30.978Z,14.70
2019-04-11T09:20:21.292Z,14.70
2019-04-11T09:23:04.136Z,14.60
2019-04-11T09:25:55.355Z,14.70
2019-04-11T09:28:54.093Z,14.70
2019-04-11T09:31:45.553Z,14.70
2019-04-11T09:34:30.045Z,14.70
2019-04-11T09:37:27.467Z,14.70
2019-04-11T09:40:26.071Z,14.80
2019-04-11T09:43:09.647Z,14.70
2019-04-11T09:46:03.849Z,14.70
2019-04-11T09:48:46.328Z,14.80
2019-04-11T09:51:40.777Z,14.70
2019-04-11T09:54:20.877Z,14.70
2019-04-11T09:57:12.091Z,14.70
2019-04-11T09:59:49.758Z,14.70
2019-04-11T10:02:40.128Z,14.70
2019-04-11T10:05:13.764Z,14.70
2019-04-11T10:08:06.391Z,14.70
2019-04-11T10:11:05.895Z,14.70
2019-04-11T10:13:53.298Z,14.70
2019-04-11T10:16:53.338Z,14.70
2019-04-11T10:19:57.591Z,14.70
2019-04-11T10:22:40.414Z,14.80
2019-04-11T10:25:35.031Z,14.70
2019-04-11T10:28:29.544Z,14.70
2019-04-11T10:31:20.312Z,14.70
2019-04-11T10:34:13.799Z,14.70
2019-04-11T10:37:07.409Z,14.70
2019-04-11T10:40:00.243Z,14.70
2019-04-11T10:42:34.997Z,14.70
2019-04-11T10:45:29.394Z,14.70
2019-04-11T10:48:07.691Z,14.70
2019-04-11T10:50:58.330Z,14.70
2019-04-11T10:53:31.142Z,14.70
2019-04-11T10:56:39.758Z,14.70
2019-04-11T10:59:13.305Z,14.70
2019-04-11T11:02:06.848Z,14.70
2019-04-11T11:05:03.226Z,14.70
2019-04-11T11:07:35.480Z,14.60
2019-04-11T11:10:11.119Z,14.70
2019-04-11T11:13:01.419Z,14.70
2019-04-11T11:15:37.878Z,14.60
2019-04-11T11:18:48.157Z,14.60
2019-04-11T11:21:07.299Z,14.60
2019-04-11T11:23:58.487Z,14.60
2019-04-11T11:26:39.555Z,14.60
2019-04-11T11:29:33.111Z,14.60
2019-04-11T11:32:11.650Z,14.70
2019-04-11T11:35:08.133Z,14.70
2019-04-11T11:37:57.535Z,14.60
2019-04-11T11:41:03.907Z,14.60
2019-04-11T11:43:36.223Z,14.60
2019-04-11T11:46:30.979Z,14.50
2019-04-11T11:49:14.076Z,14.50
2019-04-11T11:52:09.621Z,14.50
2019-04-11T11:54:48.180Z,14.50
2019-04-11T11:57:37.344Z,14.50
2019-04-11T12:00:18.924Z,14.50
2019-04-11T12:03:12.877Z,14.50
2019-04-11T12:05:52.193Z,14.60
2019-04-11T12:08:51.476Z,14.60
2019-04-11T12:11:28.365Z,14.60
2019-04-11T12:14:18.083Z,14.60
2019-04-11T12:17:01.980Z,14.60
2019-04-11T12:19:44.876Z,14.50
2019-04-11T12:22:08.568Z,14.60
2019-04-11T12:24:46.270Z,14.60
2019-04-11T12:27:28.933Z,14.60
2019-04-11T12:30:43.978Z,14.60
2019-04-11T12:33:35.333Z,14.60
2019-04-11T12:36:14.567Z,14.60
2019-04-11T12:39:12.241Z,14.60
2019-04-11T12:41:52.776Z,14.60
2019-04-11T12:44:52.154Z,14.60
2019-04-11T12:47:33.588Z,14.60
2019-04-11T12:50:25.770Z,14.60
2019-04-11T12:53:08.660Z,14.60
2019-04-11T12:55:56.031Z,14.60
2019-04-11T12:58:29.830Z,14.60
2019-04-11T13:01:20.915Z,14.60
2019-04-11T13:04:24.384Z,14.60
2019-04-11T13:07:16.361Z,14.60
2019-04-11T13:09:54.239Z,14.50
2019-04-11T13:12:57.696Z,14.50
2019-04-11T13:15:43.625Z,14.50
2019-04-11T13:18:33.593Z,14.40
2019-04-11T13:21:15.212Z,14.50
2019-04-11T13:24:09.027Z,14.50
2019-04-11T13:27:10.419Z,14.50
2019-04-11T13:30:03.879Z,14.50
2019-04-11T13:32:56.178Z,14.50
2019-04-11T13:35:36.542Z,14.60
2019-04-11T13:38:14.718Z,14.60
2019-04-11T13:41:06.127Z,14.60
2019-04-11T13:43:43.192Z,14.70
2019-04-11T13:46:36.348Z,14.60
2019-04-11T13:49:28.419Z,14.70
2019-04-11T13:52:19.679Z,14.60
2019-04-11T13:55:28.597Z,14.60
2019-04-11T13:58:25.113Z,14.60
2019-04-11T14:00:58.539Z,14.60
2019-04-11T14:03:49.466Z,14.60
2019-04-11T14:06:37.837Z,14.60
2019-04-11T14:09:21.399Z,14.60
2019-04-11T14:11:53.414Z,14.60
2019-04-11T14:14:35.871Z,14.60
2019-04-11T14:17:41.928Z,14.60
2019-04-11T14:20:30.266Z,14.60
2019-04-11T14:23:24.967Z,14.60
2019-04-11T14:26:10.487Z,14.50
2019-04-11T14:28:54.068Z,14.50
2019-04-11T14:31:38.775Z,14.50
2019-04-11T14:34:19.927Z,14.50
2019-04-11T14:37:15.208Z,14.50
2019-04-11T14:39:48.792Z,14.50
2019-04-11T14:42:45.860Z,14.50
2019-04-11T14:45:38.635Z,14.50
2019-04-11T14:48:23.028Z,14.50
2019-04-11T14:51:15.828Z,14.50
2019-04-11T14:54:02.713Z,14.50
2019-04-11T14:56:34.486Z,14.50
2019-04-11T14:59:24.966Z,14.50
2019-04-11T15:02:03.617Z,14.50
2019-04-11T15:04:56.150Z,14.40
2019-04-11T15:07:29.107Z,14.50
2019-04-11T15:10:38.449Z,14.50
2019-04-11T15:13:10.853Z,14.50
2019-04-11T15:16:10.908Z,14.50
2019-04-11T15:22:53.359Z,14.50
2019-04-11T15:25:46.744Z,14.50
2019-04-11T15:32:02.269Z,14.50
2019-04-11T15:34:48.153Z,14.40
2019-04-11T15:37:46.782Z,14.40
2019-04-11T15:40:34.183Z,14.50
2019-04-11T15:43:43.224Z,14.50
2019-04-11T15:46:28.940Z,14.40
2019-04-11T15:49:21.285Z,14.40
2019-04-11T15:52:08.064Z,14.50
2019-04-11T15:54:58.368Z,14.40
2019-04-11T15:57:49.087Z,14.40
2019-04-11T16:00:38.569Z,14.40
2019-04-11T16:03:13.266Z,14.40
2019-04-11T16:06:02.287Z,14.40
2019-04-11T16:08:52.614Z,14.30
2019-04-11T16:11:46.797Z,14.40
2019-04-11T16:14:34.350Z,14.40
2019-04-11T16:17:35.757Z,14.30
2019-04-11T16:20:19.565Z,14.40
2019-04-11T16:23:15.476Z,14.40
2019-04-11T16:25:48.915Z,14.40
2019-04-11T16:28:38.237Z,14.50
2019-04-11T16:31:11.629Z,14.50
2019-04-11T16:33:59.618Z,14.50
2019-04-11T16:36:36.626Z,14.50
2019-04-11T16:39:25.357Z,14.50
2019-04-11T16:42:07.379Z,14.50
2019-04-11T16:44:55.866Z,14.50
2019-04-11T16:47:44.127Z,14.50
2019-04-11T16:50:14.578Z,14.50
2019-04-11T16:52:45.078Z,14.50
2019-04-11T16:55:15.705Z,14.50
2019-04-11T16:57:45.817Z,14.50
2019-04-11T17:00:20.406Z,14.50
2019-04-11T17:02:47.977Z,14.50
2019-04-11T17:05:18.516Z,14.60
2019-04-11T17:07:58.537Z,14.60
2019-04-11T17:10:46.673Z,14.60
2019-04-11T17:13:17.496Z,14.60
2019-04-11T17:15:48.336Z,14.60
2019-04-11T17:18:19.189Z,14.50
2019-04-11T17:20:50.240Z,14.50
2019-04-11T17:23:20.701Z,14.60
2019-04-11T17:25:52.913Z,14.50
2019-04-11T17:28:23.756Z,14.50
2019-04-11T17:30:55.752Z,14.50
2019-04-11T17:33:28.540Z,14.50
2019-04-11T17:36:02.093Z,14.50
2019-04-11T17:38:29.700Z,14.40
2019-04-11T17:40:59.817Z,14.40
2019-04-11T17:43:30.364Z,14.50
2019-04-11T17:46:04.832Z,14.50
2019-04-11T17:48:35.137Z,14.40
2019-04-11T17:51:05.757Z,14.40
2019-04-11T17:53:35.867Z,14.40
2019-04-11T17:56:06.060Z,14.40
2019-04-11T17:58:36.719Z,14.40
2019-04-11T18:01:07.315Z,14.40
2019-04-11T18:03:41.878Z,14.40
2019-04-11T18:06:09.968Z,14.40
2019-04-11T18:52:28.786Z,14.90
2019-04-11T18:54:59.439Z,14.70
2019-04-11T18:57:33.747Z,14.70
2019-04-11T19:00:10.494Z,14.60
2019-04-11T19:02:43.721Z,14.50
2019-04-11T19:05:15.761Z,14.50
2019-04-11T19:07:47.936Z,14.40
2019-04-11T19:10:21.589Z,14.40
2019-04-11T19:12:54.289Z,14.40
2019-04-11T19:15:25.924Z,14.40
2019-04-11T19:18:06.083Z,14.40
2019-04-11T19:20:34.530Z,14.40
2019-04-11T19:23:07.909Z,14.40
2019-04-11T19:25:44.490Z,14.40
2019-04-11T19:28:19.783Z,14.50
2019-04-11T19:30:53.940Z,14.40
2019-04-11T19:33:34.064Z,14.50
2019-04-11T19:36:04.044Z,14.50
2019-04-11T19:38:37.125Z,14.50
2019-04-11T19:41:11.034Z,14.50
2019-04-11T19:43:43.400Z,14.50
2019-04-11T19:46:15.460Z,14.50
2019-04-11T19:48:47.503Z,14.40
2019-04-11T19:51:20.404Z,14.40
2019-04-11T19:53:56.192Z,14.40
2019-04-11T19:56:39.774Z,14.40
2019-04-11T19:59:16.264Z,14.40
2019-04-11T20:01:50.765Z,14.40
2019-04-11T20:04:24.938Z,14.40
2019-04-11T20:07:02.798Z,14.40
2019-04-11T20:09:39.740Z,14.40
2019-04-11T20:12:13.280Z,14.40
2019-04-11T20:14:47.764Z,14.40
2019-04-11T20:17:20.106Z,14.40
2019-04-11T20:20:01.227Z,14.30
2019-04-11T20:22:28.692Z,14.30
2019-04-11T20:25:03.941Z,14.30
2019-04-11T20:27:36.188Z,14.30
2019-04-11T20:30:15.820Z,14.30
2019-04-11T20:33:02.887Z,14.30
2019-04-11T20:35:41.894Z,14.40
2019-04-11T20:38:25.921Z,14.30
2019-04-11T20:41:10.311Z,14.40
2019-04-11T20:43:56.052Z,14.40
2019-04-11T20:46:36.386Z,14.30
2019-04-11T20:49:34.732Z,14.30
2019-04-11T20:52:23.128Z,14.40
2019-04-11T20:54:59.100Z,14.40
2019-04-11T20:57:31.353Z,14.40
2019-04-11T21:00:05.913Z,14.40
2019-04-11T21:02:41.315Z,14.40
2019-04-11T21:05:13.648Z,14.40
2019-04-11T21:07:46.109Z,14.40
2019-04-11T21:10:17.854Z,14.40
2019-04-11T21:12:49.857Z,14.40
2019-04-11T21:15:21.761Z,14.40
2019-04-11T21:17:53.628Z,14.50
2019-04-11T21:20:27.192Z,14.40
2019-04-11T21:22:59.068Z,14.40
2019-04-11T21:25:30.365Z,14.40
2019-04-11T21:28:02.216Z,14.50
2019-04-11T21:30:33.986Z,14.40
2019-04-11T21:33:05.873Z,14.40
2019-04-11T21:35:37.406Z,14.50
2019-04-11T21:38:10.046Z,14.40
2019-04-11T21:40:41.328Z,14.50
2019-04-11T21:43:12.726Z,14.40
2019-04-11T21:45:44.728Z,14.40
2019-04-11T21:48:16.014Z,14.40
2019-04-11T21:50:47.347Z,14.40
2019-04-11T21:53:18.746Z,14.40
2019-04-11T21:56:18.633Z,14.40
2019-04-11T21:58:50.736Z,14.40
2019-04-11T22:01:24.839Z,14.40
2019-04-11T22:03:57.687Z,14.50
2019-04-11T22:06:30.484Z,14.50
2019-04-11T22:09:04.833Z,14.50
2019-04-11T22:11:38.455Z,14.50
2019-04-11T22:14:11.303Z,14.50
2019-04-11T22:16:45.123Z,14.60
2019-04-11T22:19:17.172Z,14.60
2019-04-11T22:21:48.431Z,14.60
2019-04-11T22:24:19.789Z,14.60
2019-04-11T22:26:51.446Z,14.70
2019-04-11T22:29:24.836Z,14.70
2019-04-11T22:31:56.598Z,14.70
2019-04-11T22:34:33.993Z,14.70
2019-04-11T22:37:05.732Z,14.70
2019-04-11T22:39:37.012Z,14.70
2019-04-11T22:42:08.424Z,14.70
2019-04-11T22:44:39.761Z,14.80
2019-04-11T22:47:11.582Z,14.80
2019-04-11T22:49:43.002Z,14.70
2019-04-11T22:52:14.278Z,14.70
2019-04-11T22:54:45.543Z,14.70
2019-04-11T22:57:17.252Z,14.70
2019-04-11T22:59:48.687Z,14.70
2019-04-11T23:02:30.211Z,14.60
2019-04-11T23:05:03.919Z,14.60
2019-04-11T23:07:35.554Z,14.60
2019-04-11T23:10:07.134Z,14.70
2019-04-11T23:12:38.545Z,14.70
2019-04-11T23:15:14.718Z,14.70
2019-04-11T23:17:44.589Z,14.70
2019-04-11T23:20:16.130Z,14.70
2019-04-11T23:22:47.426Z,14.70
2019-04-11T23:25:18.739Z,14.70
2019-04-11T23:27:51.153Z,14.60
2019-04-11T23:30:22.432Z,14.60
2019-04-11T23:32:54.220Z,14.70
2019-04-11T23:35:25.563Z,14.60
2019-04-11T23:37:56.851Z,14.60
2019-04-11T23:40:28.694Z,14.70
2019-04-11T23:43:00.160Z,14.60
2019-04-11T23:45:31.700Z,14.60
2019-04-11T23:48:03.082Z,14.60
2019-04-11T23:50:34.364Z,14.60
2019-04-11T23:53:05.817Z,14.60
2019-04-11T23:55:37.164Z,14.60
2019-04-11T23:58:08.547Z,14.60
